Time;durP1;ratioP1;P1;durP2;ratioP2;P2;SDS_P1;SDS_P2;PMS_P1;PMS_P2;Temp;Humidity;BMP_temperature;BMP_pressure;BME280_temperature;BME280_humidity;BME280_pressure;Samples;Min_cycle;Max_cycle;Signal;HPM_P1;HPM_P2
2021/09/24 00:01:33;;;;;;;16.17;11.93;;;15.90;99.90;;;;;;5031470;28;20164;-73
2021/09/24 00:03:59;;;;;;;15.40;11.50;;;15.90;99.90;;;;;;5028824;28;20184;-72
2021/09/24 00:06:24;;;;;;;16.33;12.00;;;15.90;99.90;;;;;;5023577;28;20223;-73
2021/09/24 00:08:50;;;;;;;16.17;11.07;;;15.90;99.90;;;;;;5031743;28;20549;-73
2021/09/24 00:11:15;;;;;;;16.30;12.07;;;15.90;99.90;;;;;;5033507;28;20192;-73
2021/09/24 00:13:42;;;;;;;15.03;12.00;;;15.90;99.90;;;;;;5026702;28;20180;-73
2021/09/24 00:16:08;;;;;;;17.53;12.83;;;15.90;99.90;;;;;;5030405;28;20181;-73
2021/09/24 00:18:33;;;;;;;16.47;12.60;;;15.90;99.90;;;;;;5030169;28;20465;-73
2021/09/24 00:20:59;;;;;;;21.23;14.83;;;15.80;99.90;;;;;;5026614;28;20182;-73
2021/09/24 00:23:24;;;;;;;18.93;14.33;;;15.80;99.90;;;;;;5031077;28;20235;-73
2021/09/24 00:25:50;;;;;;;19.13;12.77;;;15.80;99.90;;;;;;5030662;28;20227;-73
2021/09/24 00:28:15;;;;;;;21.67;15.53;;;15.80;99.90;;;;;;5033187;28;20645;-73
2021/09/24 00:30:41;;;;;;;20.80;14.80;;;15.80;99.90;;;;;;5028789;28;20288;-73
2021/09/24 00:33:06;;;;;;;20.00;15.50;;;15.80;99.90;;;;;;5032984;28;20193;-73
2021/09/24 00:35:32;;;;;;;20.90;15.37;;;15.80;99.90;;;;;;5030162;28;20268;-73
2021/09/24 00:37:58;;;;;;;21.60;15.50;;;15.80;99.90;;;;;;5027994;28;20176;-73
2021/09/24 00:40:23;;;;;;;32.60;16.43;;;15.80;99.90;;;;;;5030296;28;20189;-73
2021/09/24 00:42:49;;;;;;;25.23;18.77;;;15.80;99.90;;;;;;5032251;28;20191;-73
2021/09/24 00:45:14;;;;;;;24.70;17.77;;;15.80;99.90;;;;;;5030995;28;20184;-73
2021/09/24 00:47:40;;;;;;;23.33;17.83;;;15.80;99.90;;;;;;5032309;28;20210;-73
2021/09/24 00:50:07;;;;;;;27.00;16.97;;;15.80;99.90;;;;;;5027675;28;20278;-73
2021/09/24 00:52:33;;;;;;;23.87;17.27;;;15.80;99.90;;;;;;5028338;28;20177;-73
2021/09/24 00:54:58;;;;;;;24.00;16.17;;;15.80;99.90;;;;;;5029145;28;20415;-73
2021/09/24 00:57:24;;;;;;;24.17;16.83;;;15.80;99.90;;;;;;5029940;28;20183;-73
2021/09/24 00:59:51;;;;;;;19.77;15.93;;;15.80;99.90;;;;;;5027996;28;20180;-73
2021/09/24 01:02:17;;;;;;;21.73;16.27;;;15.80;99.90;;;;;;5029903;28;20180;-73
2021/09/24 01:04:43;;;;;;;19.50;14.70;;;15.80;99.90;;;;;;5035268;28;20833;-73
2021/09/24 01:07:11;;;;;;;21.07;15.00;;;15.80;99.90;;;;;;5033883;28;20411;-73
2021/09/24 01:09:37;;;;;;;17.77;13.93;;;15.80;99.90;;;;;;5032670;28;20451;-73
2021/09/24 01:12:04;;;;;;;21.80;14.47;;;15.80;99.90;;;;;;5030035;28;20874;-73
2021/09/24 01:14:30;;;;;;;20.93;15.77;;;15.80;99.90;;;;;;5030506;28;20407;-73
2021/09/24 01:16:57;;;;;;;22.00;14.33;;;15.80;99.90;;;;;;5031255;28;20414;-72
2021/09/24 01:19:23;;;;;;;20.87;15.30;;;15.80;99.90;;;;;;5025904;28;20441;-73
2021/09/24 01:21:49;;;;;;;20.70;14.70;;;15.80;99.90;;;;;;5028658;28;20867;-73
2021/09/24 01:24:15;;;;;;;21.70;15.30;;;15.80;99.90;;;;;;5028140;28;20645;-73
2021/09/24 01:26:52;;;;;;;24.10;16.80;;;15.80;99.90;;;;;;5027999;28;20464;-73
2021/09/24 01:29:18;;;;;;;20.40;15.93;;;15.80;99.90;;;;;;5030598;28;20549;-73
2021/09/24 01:31:44;;;;;;;22.80;16.40;;;15.80;99.90;;;;;;5028946;28;20439;-73
2021/09/24 01:34:10;;;;;;;23.30;16.40;;;15.80;99.90;;;;;;5030402;28;20530;-73
2021/09/24 01:36:36;;;;;;;28.50;17.93;;;15.80;99.90;;;;;;5030221;28;20420;-73
2021/09/24 01:39:07;;;;;;;24.47;18.00;;;15.80;99.90;;;;;;5032303;28;20428;-73
2021/09/24 01:41:36;;;;;;;26.57;18.90;;;15.80;99.90;;;;;;5029715;28;20177;-73
2021/09/24 01:44:01;;;;;;;26.03;18.83;;;15.80;99.90;;;;;;5026608;28;20453;-73
2021/09/24 01:46:27;;;;;;;26.63;19.03;;;15.80;99.90;;;;;;5028834;28;20419;-73
2021/09/24 01:48:52;;;;;;;32.23;21.70;;;15.80;99.90;;;;;;5028531;28;20176;-73
2021/09/24 01:51:18;;;;;;;32.00;19.37;;;15.80;99.90;;;;;;5027526;28;20271;-73
2021/09/24 01:53:43;;;;;;;25.27;18.43;;;15.80;99.90;;;;;;5027346;28;20617;-73
2021/09/24 01:56:09;;;;;;;30.40;20.27;;;15.80;99.90;;;;;;5027979;28;20267;-73
2021/09/24 01:58:34;;;;;;;28.27;18.33;;;15.80;99.90;;;;;;5031889;28;20177;-73
2021/09/24 02:01:00;;;;;;;34.60;20.40;;;15.80;99.90;;;;;;5026865;28;20180;-73
2021/09/24 02:03:25;;;;;;;29.97;21.03;;;15.80;99.90;;;;;;5032252;28;20181;-73
2021/09/24 02:05:51;;;;;;;34.50;20.80;;;15.80;99.90;;;;;;5032324;28;20177;-73
2021/09/24 02:08:16;;;;;;;26.53;18.70;;;15.80;99.90;;;;;;5030002;28;20188;-73
2021/09/24 02:10:42;;;;;;;29.17;18.67;;;15.80;99.90;;;;;;5024355;28;20193;-73
2021/09/24 02:13:08;;;;;;;26.60;17.40;;;15.80;99.90;;;;;;5028666;28;20184;-73
2021/09/24 02:15:33;;;;;;;24.13;18.17;;;15.80;99.90;;;;;;5029818;28;20191;-73
2021/09/24 02:17:59;;;;;;;25.50;19.90;;;15.80;99.90;;;;;;5031460;28;20188;-73
2021/09/24 02:20:24;;;;;;;26.43;20.37;;;15.80;99.90;;;;;;5030624;28;20196;-73
2021/09/24 02:22:51;;;;;;;29.93;21.27;;;15.80;99.90;;;;;;5028767;28;20322;-73
2021/09/24 02:25:17;;;;;;;28.27;20.50;;;15.80;99.90;;;;;;5032091;28;20419;-73
2021/09/24 02:27:42;;;;;;;29.67;20.73;;;15.80;99.90;;;;;;5032520;28;20427;-73
2021/09/24 02:30:08;;;;;;;33.37;22.90;;;15.80;99.90;;;;;;5031128;28;20270;-73
2021/09/24 02:32:34;;;;;;;30.60;22.60;;;15.80;99.90;;;;;;5032728;28;20213;-73
2021/09/24 02:34:59;;;;;;;31.30;21.37;;;15.80;99.90;;;;;;5030133;28;20420;-73
2021/09/24 02:37:25;;;;;;;30.13;20.07;;;15.80;99.90;;;;;;5030059;28;20256;-73
2021/09/24 02:39:51;;;;;;;31.77;20.10;;;15.80;99.90;;;;;;5033500;28;20646;-73
2021/09/24 02:42:17;;;;;;;26.03;20.27;;;15.80;99.90;;;;;;5036303;28;20230;-73
2021/09/24 02:44:42;;;;;;;32.33;19.60;;;15.80;99.90;;;;;;5034034;28;20227;-73
2021/09/24 02:47:09;;;;;;;28.67;20.57;;;15.80;99.90;;;;;;5035965;28;20268;-73
2021/09/24 02:49:37;;;;;;;31.23;19.93;;;15.80;99.90;;;;;;5035557;28;20203;-73
2021/09/24 02:52:04;;;;;;;23.43;17.37;;;15.80;99.90;;;;;;5029608;28;20846;-73
2021/09/24 02:54:30;;;;;;;28.67;18.70;;;15.80;99.90;;;;;;5033000;28;20419;-73
2021/09/24 02:56:55;;;;;;;26.63;18.87;;;15.80;99.90;;;;;;5036263;28;20442;-73
2021/09/24 02:59:21;;;;;;;24.77;18.37;;;15.80;99.90;;;;;;5035325;28;20184;-73
2021/09/24 03:01:46;;;;;;;26.10;16.37;;;15.80;99.90;;;;;;5035395;28;20187;-73
2021/09/24 03:04:12;;;;;;;32.60;17.63;;;15.80;99.90;;;;;;5032302;28;20173;-73
2021/09/24 03:06:37;;;;;;;30.83;18.27;;;15.80;99.90;;;;;;5027341;28;20286;-73
2021/09/24 03:09:03;;;;;;;30.30;17.77;;;15.80;99.90;;;;;;5028327;28;20188;-73
2021/09/24 03:11:28;;;;;;;27.43;17.53;;;15.80;99.90;;;;;;5035279;28;20165;-73
2021/09/24 03:13:54;;;;;;;29.40;18.77;;;15.80;99.90;;;;;;5030176;28;20256;-73
2021/09/24 03:16:20;;;;;;;35.20;19.07;;;15.80;99.90;;;;;;5031980;28;20295;-73
2021/09/24 03:18:47;;;;;;;28.00;18.00;;;15.80;99.90;;;;;;5029969;28;20239;-73
2021/09/24 03:21:12;;;;;;;27.60;18.20;;;15.80;99.90;;;;;;5025353;28;20427;-73
2021/09/24 03:23:38;;;;;;;27.73;17.83;;;15.80;99.90;;;;;;5032156;28;20435;-73
2021/09/24 03:26:04;;;;;;;35.27;19.60;;;15.80;99.90;;;;;;5033375;28;20188;-73
2021/09/24 03:28:30;;;;;;;28.40;18.10;;;15.80;99.90;;;;;;5028429;28;20176;-73
2021/09/24 03:30:56;;;;;;;33.10;19.30;;;15.80;99.90;;;;;;5030992;28;20577;-73
2021/09/24 03:33:21;;;;;;;30.70;19.43;;;15.80;99.90;;;;;;5032036;28;20526;-73
2021/09/24 03:35:47;;;;;;;31.03;19.87;;;15.80;99.90;;;;;;5031504;28;20651;-73
2021/09/24 03:38:12;;;;;;;30.70;19.33;;;15.80;99.90;;;;;;5031013;28;20176;-73
2021/09/24 03:40:39;;;;;;;35.73;20.10;;;15.80;99.90;;;;;;5026501;28;20215;-73
2021/09/24 03:43:04;;;;;;;30.30;19.27;;;15.80;99.90;;;;;;5018263;28;20204;-73
2021/09/24 03:45:30;;;;;;;38.83;21.77;;;15.80;99.90;;;;;;5027969;28;20454;-73
2021/09/24 03:47:55;;;;;;;34.53;22.30;;;15.80;99.90;;;;;;5031295;28;20181;-73
2021/09/24 03:50:23;;;;;;;37.57;21.97;;;15.80;99.90;;;;;;5028242;28;20236;-74
2021/09/24 03:52:50;;;;;;;32.67;21.13;;;15.80;99.90;;;;;;5025597;28;20185;-74
2021/09/24 03:55:15;;;;;;;37.73;23.37;;;15.80;99.90;;;;;;5030579;28;20411;-73
2021/09/24 03:57:41;;;;;;;35.03;22.87;;;15.80;99.90;;;;;;5028353;28;20946;-73
2021/09/24 04:00:07;;;;;;;38.80;24.03;;;15.80;99.90;;;;;;5026991;28;20256;-73
2021/09/24 04:02:33;;;;;;;36.17;23.13;;;15.80;99.90;;;;;;5029260;28;20177;-73
2021/09/24 04:04:58;;;;;;;42.47;22.10;;;15.70;99.90;;;;;;5029069;28;20422;-74
2021/09/24 04:07:24;;;;;;;35.63;23.93;;;15.80;99.90;;;;;;5028112;28;20572;-74
2021/09/24 04:09:49;;;;;;;37.50;24.90;;;15.80;99.90;;;;;;5028721;28;20196;-74
2021/09/24 04:12:15;;;;;;;37.80;24.10;;;15.70;99.90;;;;;;5030499;28;20187;-73
2021/09/24 04:14:40;;;;;;;39.07;24.20;;;15.70;99.90;;;;;;5031973;28;20662;-73
2021/09/24 04:17:06;;;;;;;36.70;23.20;;;15.70;99.90;;;;;;5030668;28;20230;-73
2021/09/24 04:19:31;;;;;;;40.00;25.90;;;15.70;99.90;;;;;;5029293;28;20221;-75
2021/09/24 04:21:57;;;;;;;42.13;24.40;;;15.70;99.90;;;;;;5030706;28;20181;-76
2021/09/24 04:24:22;;;;;;;40.43;24.07;;;15.70;99.90;;;;;;5031580;28;20180;-75
2021/09/24 04:26:48;;;;;;;44.80;25.13;;;15.80;99.90;;;;;;5031997;28;20661;-75
2021/09/24 04:29:14;;;;;;;42.60;25.03;;;15.80;99.90;;;;;;5033426;28;20196;-73
2021/09/24 04:31:39;;;;;;;52.50;25.23;;;15.80;99.90;;;;;;5032613;28;20244;-73
2021/09/24 04:34:05;;;;;;;40.47;24.67;;;15.70;99.90;;;;;;5030513;28;20177;-73
2021/09/24 04:36:31;;;;;;;38.03;24.10;;;15.70;99.90;;;;;;5033123;28;20563;-76
2021/09/24 04:38:57;;;;;;;45.37;23.70;;;15.80;99.90;;;;;;5032715;28;20169;-73
2021/09/24 04:41:23;;;;;;;36.77;24.73;;;15.80;99.90;;;;;;5031831;28;20228;-76
2021/09/24 04:43:49;;;;;;;43.43;26.10;;;15.80;99.90;;;;;;5031956;28;20427;-76
2021/09/24 04:46:14;;;;;;;42.13;24.63;;;15.70;99.90;;;;;;5030434;28;20422;-76
2021/09/24 04:48:40;;;;;;;48.33;26.27;;;15.70;99.90;;;;;;5029347;28;20169;-76
2021/09/24 04:51:06;;;;;;;51.43;26.40;;;15.70;99.90;;;;;;5026586;28;20700;-76
2021/09/24 04:53:32;;;;;;;50.87;27.77;;;15.80;99.90;;;;;;5030413;28;20626;-76
2021/09/24 04:55:57;;;;;;;39.53;23.50;;;15.70;99.90;;;;;;5027487;28;20444;-76
2021/09/24 04:58:23;;;;;;;44.90;25.40;;;15.70;99.90;;;;;;5028361;28;20264;-74
2021/09/24 05:00:49;;;;;;;44.37;25.00;;;15.80;99.90;;;;;;5032873;28;20200;-73
2021/09/24 05:03:15;;;;;;;45.17;24.57;;;15.70;99.90;;;;;;5032086;28;20169;-74
2021/09/24 05:05:41;;;;;;;44.00;24.40;;;15.70;99.90;;;;;;5033821;28;20406;-74
2021/09/24 05:08:07;;;;;;;41.13;23.70;;;15.80;99.90;;;;;;5031176;28;20176;-74
2021/09/24 05:10:32;;;;;;;40.53;24.23;;;15.80;99.90;;;;;;5032113;28;20228;-74
2021/09/24 05:12:58;;;;;;;47.27;26.60;;;15.70;99.90;;;;;;5034007;28;20186;-74
2021/09/24 05:15:23;;;;;;;47.07;25.30;;;15.80;99.90;;;;;;5028760;28;20545;-74
2021/09/24 05:17:49;;;;;;;43.07;25.87;;;15.70;99.90;;;;;;5028654;28;20223;-74
2021/09/24 05:20:15;;;;;;;46.90;24.60;;;15.70;99.90;;;;;;5025474;28;20581;-74
2021/09/24 05:22:41;;;;;;;40.97;24.33;;;15.80;99.90;;;;;;5030454;28;20580;-74
2021/09/24 05:25:07;;;;;;;51.13;26.80;;;15.70;99.90;;;;;;5021949;28;20181;-75
2021/09/24 05:27:33;;;;;;;40.90;23.60;;;15.70;99.90;;;;;;5029954;28;20431;-74
2021/09/24 05:29:58;;;;;;;44.23;27.37;;;15.80;99.90;;;;;;5026288;28;20468;-74
2021/09/24 05:32:24;;;;;;;46.07;26.73;;;15.80;99.90;;;;;;5027409;28;20205;-74
2021/09/24 05:34:50;;;;;;;55.07;28.60;;;15.80;99.90;;;;;;5031663;28;20557;-74
2021/09/24 05:37:15;;;;;;;43.37;25.03;;;15.80;99.90;;;;;;5030678;28;20191;-74
2021/09/24 05:39:42;;;;;;;49.03;25.90;;;15.80;99.90;;;;;;5025797;28;20180;-74
2021/09/24 05:42:08;;;;;;;46.30;26.73;;;15.80;99.90;;;;;;5031549;28;20176;-74
2021/09/24 05:44:34;;;;;;;55.80;30.53;;;15.80;99.90;;;;;;5032974;28;20450;-74
2021/09/24 05:47:00;;;;;;;48.03;28.70;;;15.80;99.90;;;;;;5022169;28;20439;-76
2021/09/24 05:49:29;;;;;;;54.90;30.13;;;15.80;99.90;;;;;;5027789;28;20664;-74
2021/09/24 05:51:55;;;;;;;55.07;29.23;;;15.80;99.90;;;;;;5026333;28;20574;-74
2021/09/24 05:54:21;;;;;;;49.47;28.07;;;15.80;99.90;;;;;;5027370;28;20412;-76
2021/09/24 05:56:47;;;;;;;49.43;30.07;;;15.80;99.90;;;;;;5027213;28;20963;-74
2021/09/24 05:59:12;;;;;;;54.50;30.43;;;15.80;99.90;;;;;;5030366;28;20187;-74
2021/09/24 06:01:38;;;;;;;54.43;30.20;;;15.80;99.90;;;;;;5029682;28;20223;-74
2021/09/24 06:04:03;;;;;;;51.50;30.03;;;15.80;99.90;;;;;;5022976;28;20531;-74
2021/09/24 06:06:29;;;;;;;57.03;32.17;;;15.80;99.90;;;;;;5027440;28;20199;-74
2021/09/24 06:08:54;;;;;;;56.37;31.40;;;15.80;99.90;;;;;;5022960;28;20628;-75
2021/09/24 06:11:20;;;;;;;57.47;32.30;;;15.80;99.90;;;;;;5026146;28;20197;-74
2021/09/24 06:13:45;;;;;;;51.90;31.87;;;15.80;99.90;;;;;;5029711;28;20168;-74
2021/09/24 06:16:11;;;;;;;53.10;31.43;;;15.80;99.90;;;;;;5031742;28;20173;-74
2021/09/24 06:18:38;;;;;;;48.37;27.90;;;15.80;99.90;;;;;;5033231;28;20227;-74
2021/09/24 06:21:03;;;;;;;53.60;30.67;;;15.80;99.90;;;;;;5027908;28;20435;-74
2021/09/24 06:23:30;;;;;;;47.50;28.43;;;15.80;99.90;;;;;;5029068;28;20518;-74
2021/09/24 06:25:59;;;;;;;50.70;29.60;;;15.80;99.90;;;;;;5031921;28;20204;-74
2021/09/24 06:28:26;;;;;;;43.80;26.67;;;15.80;99.90;;;;;;5026637;28;20533;-74
2021/09/24 06:30:51;;;;;;;48.53;28.70;;;15.80;99.90;;;;;;5029795;28;20469;-74
2021/09/24 06:33:17;;;;;;;47.83;26.90;;;15.80;99.90;;;;;;5029081;28;20439;-74
2021/09/24 06:35:43;;;;;;;45.53;29.40;;;15.80;99.90;;;;;;5029667;28;20208;-74
2021/09/24 06:38:09;;;;;;;50.17;28.80;;;15.80;99.90;;;;;;5028953;28;20474;-74
2021/09/24 06:40:34;;;;;;;52.83;28.30;;;15.90;99.90;;;;;;5032017;28;20201;-74
2021/09/24 06:43:00;;;;;;;51.13;28.40;;;15.90;99.90;;;;;;5031848;28;20184;-74
2021/09/24 06:45:27;;;;;;;46.73;27.60;;;15.90;99.90;;;;;;5030399;28;20899;-74
2021/09/24 06:47:53;;;;;;;53.27;29.27;;;15.90;99.90;;;;;;5031810;28;20212;-74
2021/09/24 06:50:19;;;;;;;45.10;27.57;;;15.90;99.90;;;;;;5026629;28;20478;-74
2021/09/24 06:52:44;;;;;;;45.90;29.73;;;15.90;99.90;;;;;;5036191;28;20420;-74
2021/09/24 06:55:10;;;;;;;47.13;28.37;;;16.00;99.90;;;;;;5036457;28;20737;-74
2021/09/24 06:57:36;;;;;;;48.57;28.87;;;16.00;99.90;;;;;;5031827;28;20184;-74
2021/09/24 07:00:04;;;;;;;45.47;26.77;;;16.00;99.90;;;;;;5034306;28;20423;-74
2021/09/24 07:02:30;;;;;;;40.00;27.53;;;16.00;99.90;;;;;;5034452;28;20560;-74
2021/09/24 07:04:55;;;;;;;41.60;26.37;;;16.00;99.90;;;;;;5037353;28;20432;-74
2021/09/24 07:07:21;;;;;;;38.80;25.80;;;16.00;99.90;;;;;;5032544;28;20205;-74
2021/09/24 07:09:46;;;;;;;38.83;24.33;;;16.00;99.90;;;;;;5033468;28;20254;-74
2021/09/24 07:12:12;;;;;;;41.20;25.50;;;16.00;99.90;;;;;;5035525;28;20594;-76
2021/09/24 07:14:38;;;;;;;41.33;24.57;;;16.00;99.90;;;;;;5037038;28;20177;-75
2021/09/24 07:17:05;;;;;;;40.90;23.53;;;16.00;99.90;;;;;;5035550;28;20207;-75
2021/09/24 07:19:31;;;;;;;34.13;22.50;;;16.00;99.90;;;;;;5030142;28;20431;-75
2021/09/24 07:21:57;;;;;;;32.63;22.80;;;16.00;99.90;;;;;;5034071;28;20971;-75
2021/09/24 07:24:22;;;;;;;33.07;21.50;;;16.00;99.90;;;;;;5033876;28;20176;-75
2021/09/24 07:26:48;;;;;;;30.13;20.53;;;16.00;99.90;;;;;;5026674;28;20182;-75
2021/09/24 07:29:15;;;;;;;29.20;20.40;;;16.10;99.90;;;;;;5029535;28;20693;-75
2021/09/24 07:31:40;;;;;;;28.43;21.20;;;16.00;99.90;;;;;;5028424;28;20949;-75
2021/09/24 07:34:06;;;;;;;33.63;22.30;;;16.10;99.90;;;;;;5023751;28;20421;-75
2021/09/24 07:36:32;;;;;;;36.77;23.30;;;16.00;99.90;;;;;;5028371;28;20170;-75
2021/09/24 07:38:58;;;;;;;30.27;21.10;;;16.00;99.90;;;;;;5029013;28;20511;-75
2021/09/24 07:41:23;;;;;;;31.53;22.67;;;16.10;99.90;;;;;;5028526;28;20253;-75
2021/09/24 07:43:52;;;;;;;27.43;20.97;;;16.10;99.90;;;;;;5022821;28;20665;-75
2021/09/24 07:46:20;;;;;;;34.70;22.73;;;16.10;99.90;;;;;;5027511;28;20677;-74
2021/09/24 07:48:46;;;;;;;35.60;23.03;;;16.10;99.90;;;;;;5030039;28;20550;-75
2021/09/24 07:51:12;;;;;;;31.00;23.20;;;16.20;99.90;;;;;;5029309;28;20581;-75
2021/09/24 07:53:38;;;;;;;38.47;24.63;;;16.20;99.90;;;;;;5028769;28;20764;-74
2021/09/24 07:56:05;;;;;;;34.33;24.20;;;16.20;99.90;;;;;;5029421;28;20481;-75
2021/09/24 07:58:31;;;;;;;32.43;21.57;;;16.20;99.90;;;;;;5030088;28;20501;-74
2021/09/24 08:00:56;;;;;;;27.60;20.90;;;16.20;99.90;;;;;;5031441;28;20506;-74
2021/09/24 08:03:22;;;;;;;30.47;21.70;;;16.20;99.90;;;;;;5031179;28;20247;-75
2021/09/24 08:05:48;;;;;;;25.87;18.40;;;16.30;99.90;;;;;;5028653;28;20184;-75
2021/09/24 08:08:13;;;;;;;26.80;18.33;;;16.30;99.90;;;;;;5024180;28;20182;-75
2021/09/24 08:10:39;;;;;;;31.57;20.60;;;16.30;99.90;;;;;;5031671;28;20192;-75
2021/09/24 08:13:05;;;;;;;25.70;18.93;;;16.30;99.90;;;;;;5030285;28;20176;-75
2021/09/24 08:15:31;;;;;;;25.40;19.17;;;16.30;99.90;;;;;;5030823;28;20239;-75
2021/09/24 08:17:57;;;;;;;31.70;20.77;;;16.40;99.90;;;;;;5031302;28;20228;-75
2021/09/24 08:20:23;;;;;;;30.30;19.80;;;16.40;99.90;;;;;;5030020;28;20439;-74
2021/09/24 08:22:49;;;;;;;31.83;21.17;;;16.40;99.90;;;;;;5030417;28;20180;-75
2021/09/24 08:25:17;;;;;;;27.97;19.70;;;16.50;99.90;;;;;;5032016;28;20223;-75
2021/09/24 08:27:44;;;;;;;30.37;18.90;;;16.50;99.90;;;;;;5033187;28;20430;-75
2021/09/24 08:30:12;;;;;;;30.17;19.53;;;16.50;99.90;;;;;;5031310;28;22074;-75
2021/09/24 08:32:38;;;;;;;28.50;20.00;;;16.50;99.90;;;;;;5031069;28;20435;-75
2021/09/24 08:35:07;;;;;;;29.57;19.23;;;16.50;99.90;;;;;;5032289;28;20411;-75
2021/09/24 08:37:33;;;;;;;29.60;19.20;;;16.60;99.90;;;;;;5036206;28;20781;-74
2021/09/24 08:39:59;;;;;;;28.63;20.33;;;16.60;99.90;;;;;;5033186;28;20477;-75
2021/09/24 08:42:26;;;;;;;30.37;19.27;;;16.60;99.90;;;;;;5035354;28;20447;-74
2021/09/24 08:44:52;;;;;;;29.60;18.23;;;16.70;99.90;;;;;;5030139;28;20187;-75
2021/09/24 08:47:18;;;;;;;30.30;19.90;;;16.70;99.90;;;;;;5030553;28;20912;-75
2021/09/24 08:49:45;;;;;;;27.63;18.80;;;16.80;99.90;;;;;;5031659;28;20489;-75
2021/09/24 08:52:12;;;;;;;28.53;20.80;;;16.80;99.90;;;;;;5028274;28;20811;-75
2021/09/24 08:54:40;;;;;;;31.57;20.23;;;16.90;99.90;;;;;;5031032;28;20928;-75
2021/09/24 08:57:11;;;;;;;32.63;21.47;;;16.90;99.90;;;;;;5032972;28;20542;-75
2021/09/24 08:59:37;;;;;;;31.40;20.57;;;17.00;99.90;;;;;;5029039;28;20537;-74
2021/09/24 09:02:06;;;;;;;35.67;21.40;;;17.00;99.90;;;;;;5031816;28;20860;-74
2021/09/24 09:07:18;;;;;;;34.33;22.93;;;17.10;99.90;;;;;;5063244;28;20530;-74
2021/09/24 09:09:46;;;;;;;33.03;21.13;;;17.10;99.90;;;;;;5065018;28;20425;-74
2021/09/24 09:12:15;;;;;;;24.70;20.27;;;17.10;99.90;;;;;;5065090;28;20422;-74
2021/09/24 09:14:55;;;;;;;30.83;20.90;;;17.10;99.90;;;;;;5060563;28;20827;-74
2021/09/24 09:17:38;;;;;;;28.97;20.70;;;17.20;99.90;;;;;;5062943;28;20444;-74
2021/09/24 09:20:29;;;;;;;34.53;24.77;;;17.20;99.90;;;;;;5062301;28;20972;-74
2021/09/24 09:25:43;;;;;;;33.33;23.73;;;17.20;99.90;;;;;;5065854;28;20957;-75
2021/09/24 09:28:13;;;;;;;31.70;21.90;;;17.40;99.90;;;;;;5053925;28;20423;-75
2021/09/24 09:30:41;;;;;;;31.10;21.63;;;17.40;99.90;;;;;;5049092;28;20439;-75
2021/09/24 09:33:14;;;;;;;28.87;22.13;;;17.40;99.90;;;;;;5051580;28;20432;-75
2021/09/24 09:35:51;;;;;;;28.77;20.90;;;17.50;99.90;;;;;;5046458;28;20925;-75
2021/09/24 09:41:06;;;;;;;26.10;19.07;;;17.50;99.90;;;;;;5059858;28;20881;-74
2021/09/24 09:43:35;;;;;;;29.43;17.40;;;17.60;99.90;;;;;;5050281;28;20419;-73
2021/09/24 09:46:03;;;;;;;27.70;17.43;;;17.70;99.90;;;;;;5051233;28;20839;-73
2021/09/24 09:48:29;;;;;;;25.50;18.00;;;17.70;99.90;;;;;;5048956;28;20430;-73
2021/09/24 09:50:55;;;;;;;22.50;17.70;;;17.80;99.90;;;;;;5044748;28;20516;-72
2021/09/24 09:53:21;;;;;;;21.43;15.50;;;17.80;99.90;;;;;;5046254;28;20508;-73
2021/09/24 09:58:27;;;;;;;20.30;14.57;;;17.80;99.90;;;;;;5149675;27;20540;-74
2021/09/24 10:03:49;;;;;;;22.63;15.40;;;18.20;99.90;;;;;;5062972;28;20530;-73
2021/09/24 10:06:32;;;;;;;19.50;14.63;;;18.40;99.90;;;;;;5054363;28;20802;-73
2021/09/24 10:09:00;;;;;;;17.60;14.43;;;18.60;99.90;;;;;;5048465;28;20422;-73
2021/09/24 10:11:31;;;;;;;16.77;14.00;;;18.70;99.90;;;;;;5051048;28;20787;-73
2021/09/24 10:16:37;;;;;;;15.07;12.30;;;18.80;99.90;;;;;;5048072;28;21207;-74
2021/09/24 10:19:04;;;;;;;16.87;13.30;;;18.80;99.90;;;;;;5047680;28;20445;-74
2021/09/24 10:21:29;;;;;;;18.00;15.60;;;18.90;99.90;;;;;;5047075;28;20525;-74
2021/09/24 10:23:56;;;;;;;13.20;11.00;;;19.00;99.90;;;;;;5047647;28;20538;-74
2021/09/24 10:26:28;;;;;;;13.70;11.03;;;19.00;99.90;;;;;;5047490;28;20180;-74
2021/09/24 10:29:07;;;;;;;16.47;11.97;;;19.10;99.90;;;;;;5048586;28;20414;-74
2021/09/24 10:31:37;;;;;;;17.13;12.50;;;19.20;99.90;;;;;;5049833;28;20890;-74
2021/09/24 10:34:03;;;;;;;16.83;11.47;;;19.30;99.90;;;;;;5043617;28;20469;-74
2021/09/24 10:36:50;;;;;;;12.33;9.90;;;19.40;99.90;;;;;;5048909;28;20971;-74
2021/09/24 10:45:03;;;;;;;11.70;10.10;;;19.60;99.90;;;;;;5066737;28;20928;-75
2021/09/24 10:48:08;;;;;;;10.70;8.20;;;19.90;99.90;;;;;;5063978;28;20466;-75
2021/09/24 10:53:18;;;;;;;8.57;7.60;;;20.00;99.90;;;;;;5068022;28;20516;-73
2021/09/24 10:58:40;;;;;;;11.10;9.10;;;20.10;99.90;;;;;;5053382;28;20553;-75
2021/09/24 11:01:12;;;;;;;10.83;9.37;;;20.20;99.90;;;;;;5050285;28;20484;-75
2021/09/24 11:03:58;;;;;;;9.07;7.67;;;20.30;99.90;;;;;;5052679;28;20434;-75
2021/09/24 11:06:46;;;;;;;9.00;7.50;;;20.40;99.90;;;;;;5047399;28;20442;-75
2021/09/24 11:09:15;;;;;;;10.20;7.50;;;20.50;99.90;;;;;;5045620;28;20434;-75
2021/09/24 11:11:45;;;;;;;9.90;7.67;;;20.60;99.90;;;;;;5055624;28;20517;-75
2021/09/24 11:14:33;;;;;;;10.20;7.23;;;20.70;99.90;;;;;;5033709;28;20856;-75
2021/09/24 11:17:00;;;;;;;7.83;6.73;;;20.70;99.90;;;;;;5048271;28;20897;-75
2021/09/24 11:22:38;;;;;;;8.47;6.27;;;20.80;99.90;;;;;;5060335;28;20521;-73
2021/09/24 11:25:08;;;;;;;9.63;6.63;;;20.70;99.90;;;;;;5057414;28;20816;-73
2021/09/24 11:32:59;;;;;;;7.00;5.70;;;20.60;99.90;;;;;;5032180;28;20562;-74
2021/09/24 11:35:46;;;;;;;11.20;6.67;;;20.50;99.90;;;;;;5014095;28;20467;-75
2021/09/24 11:38:16;;;;;;;8.07;6.33;;;20.50;99.90;;;;;;5004588;28;20514;-75
2021/09/24 11:40:49;;;;;;;8.67;6.53;;;20.50;99.90;;;;;;5011030;28;20917;-75
2021/09/24 11:43:22;;;;;;;8.20;7.30;;;20.50;99.90;;;;;;5010677;28;20534;-75
2021/09/24 11:45:47;;;;;;;12.80;7.40;;;20.40;99.90;;;;;;5016976;28;20448;-75
2021/09/24 11:48:13;;;;;;;7.60;6.80;;;20.40;99.90;;;;;;5002886;28;20501;-74
2021/09/24 11:50:39;;;;;;;8.47;7.20;;;20.40;99.90;;;;;;5008844;28;20177;-74
2021/09/24 11:53:09;;;;;;;7.67;5.87;;;20.50;99.90;;;;;;5008472;28;20181;-75
2021/09/24 11:55:43;;;;;;;9.60;6.80;;;20.50;99.90;;;;;;5002313;28;20647;-75
2021/09/24 12:03:24;;;;;;;7.93;6.27;;;20.60;99.90;;;;;;5061135;28;20558;-74
2021/09/24 12:08:29;;;;;;;11.63;8.20;;;20.80;99.90;;;;;;5045009;28;21151;-74
2021/09/24 12:10:58;;;;;;;9.77;7.27;;;20.90;99.90;;;;;;5030049;28;20415;-74
2021/09/24 12:16:26;;;;;;;7.50;6.30;;;20.80;99.90;;;;;;5051089;28;20550;-75
2021/09/24 12:24:34;;;;;;;6.93;6.20;;;20.70;99.90;;;;;;5065415;28;20545;-75
2021/09/24 12:29:42;;;;;;;6.87;5.57;;;20.70;99.90;;;;;;5048984;28;20578;-75
2021/09/24 12:32:12;;;;;;;8.10;6.27;;;20.50;99.90;;;;;;5042781;28;20440;-75
2021/09/24 12:37:40;;;;;;;7.23;5.00;;;20.50;99.90;;;;;;5048905;28;20587;-75
2021/09/24 12:42:53;;;;;;;5.87;5.03;;;20.50;99.90;;;;;;5067396;28;20540;-74
2021/09/24 12:45:24;;;;;;;7.63;5.80;;;20.50;99.90;;;;;;5042089;28;21033;-74
2021/09/24 12:47:50;;;;;;;6.20;5.37;;;20.50;99.90;;;;;;5050257;28;20480;-74
2021/09/24 12:50:16;;;;;;;5.87;5.23;;;20.40;99.90;;;;;;5050498;28;20430;-75
2021/09/24 12:52:42;;;;;;;7.03;5.70;;;20.40;99.90;;;;;;5046438;28;20203;-75
2021/09/24 12:55:09;;;;;;;7.83;6.17;;;20.40;99.90;;;;;;5051816;28;20414;-75
2021/09/24 12:57:35;;;;;;;8.07;5.80;;;20.40;99.90;;;;;;5046653;28;20191;-75
2021/09/24 13:00:06;;;;;;;6.80;5.17;;;20.30;99.90;;;;;;5049488;28;20415;-75
2021/09/24 13:02:34;;;;;;;10.17;5.77;;;20.30;99.90;;;;;;5040672;28;20454;-77
2021/09/24 13:05:00;;;;;;;5.53;5.03;;;20.20;99.90;;;;;;5048311;28;20415;-76
2021/09/24 13:07:29;;;;;;;6.23;5.00;;;20.20;99.90;;;;;;5047882;28;20518;-75
2021/09/24 13:10:13;;;;;;;9.10;5.50;;;20.10;99.90;;;;;;5045312;28;20420;-76
2021/09/24 13:12:41;;;;;;;6.93;5.33;;;20.00;99.90;;;;;;5047687;28;20430;-75
2021/09/24 13:15:10;;;;;;;5.80;4.50;;;19.90;99.90;;;;;;5041540;28;20950;-75
2021/09/24 13:17:36;;;;;;;4.80;4.30;;;19.90;99.90;;;;;;5041404;28;20429;-75
2021/09/24 13:20:03;;;;;;;8.93;5.10;;;19.80;99.90;;;;;;5043185;28;20423;-75
2021/09/24 13:22:29;;;;;;;6.07;4.80;;;19.80;99.90;;;;;;5041131;28;20532;-75
2021/09/24 13:24:54;;;;;;;8.43;5.17;;;19.70;99.90;;;;;;5042389;28;20416;-75
2021/09/24 13:27:20;;;;;;;6.63;5.80;;;19.70;99.90;;;;;;5047182;28;20260;-75
2021/09/24 13:29:46;;;;;;;6.87;5.53;;;19.70;99.90;;;;;;5047760;28;20218;-76
2021/09/24 13:32:14;;;;;;;6.70;5.47;;;19.70;99.90;;;;;;5047650;28;20205;-77